Terminal Aerodrome Forecast
Issued by NWS Sterling, VA

Current Version | Previous Version | Text Only | Print | Product List | Glossary Off
Versions: 1 2 3 4 5 6 7 8 9 10 11 12 13 14 15 16 17 18 19 20 21

000
FTUS41 KLWX 040848 AAA
TAFMRB
TAF AMD
KMRB 040848Z 0409/0506 VRB04KT P6SM FEW090
     FM041400 21006KT P6SM SCT060
      TEMPO 0418/0421 20009G16KT=

USA.gov is the U.S. government's official web portal to all federal, state and local government web resources and services.